Weather History for Jamestown, NY

Change the Weather History Date:

Friday, May 3, 2013

  Actual Average Record
Temperature  
Mean Temperature 62 °F -  
Max Temperature 73 °F 63 °F 80 °F (2012)
Min Temperature 51 °F 35 °F 25 °F (1978)
Degree Days  
Heating Degree Days 3    
Growing Degree Days 12 (Base 50)    
Moisture  
Dew Point 36 °F    
Average Humidity 39    
Maximum Humidity 54    
Minimum Humidity 27    
Precipitation  
Precipitation 0.00 in - - ()
Sea Level Pressure  
Sea Level Pressure 30.26 in    
Wind  
Wind Speed 8 mph (SSE)    
Max Wind Speed 15 mph    
Max Gust Speed 22 mph    
Visibility 10 miles    
Events      
Averages and records for this station are not official NWS values.
T = Trace of Precipitation, MM = Missing Value Source: NWS Daily Summary

Daily Weather History Graph

Daily Weather History Graph

Search for Another Location

Airport:

Trip Planner

Search our weather history database for the weather conditions in past years. The results will help you decide how hot, cold, wet, or windy it might be!

Date:

Astronomy

May. 03, 2013 Rise Set
Actual Time 6:09 AM EDT 8:18 PM EDT
Civil Twilight 5:39 AM EDT 8:49 PM EDT
Nautical Twilight 5:01 AM EDT 9:27 PM EDT
Astronomical Twilight 4:19 AM EDT 10:09 PM EDT
Moon 2:40 AM EDT (5/3) 2:04 PM EDT (5/3)
Length of Visible Light 15h 10m
Length of Day
14h 08m
Last Quarter, 37% of the Moon is Illuminated
May 3
Last Quarter
May 9
New
May 18
First Quarter
May 25
Full
May 31
Last Quarter

Hourly Weather History & Observations

Time (EDT) Temp. Dew Point Humidity Pressure Visibility Wind Dir Wind Speed Gust Speed Precip Events Conditions
12:15 AM 59.0 °F 26.6 °F 29% 30.29 in 10.0 mi SSE 5.8 mph - N/A   Clear
12:35 AM 59.0 °F 26.6 °F 29% 30.29 in 10.0 mi SSE 3.5 mph - N/A   Clear
12:55 AM 57.2 °F 28.4 °F 33% 30.28 in 10.0 mi SSE 8.1 mph - N/A   Clear
1:15 AM 57.2 °F 30.2 °F 36% 30.28 in 10.0 mi SSE 6.9 mph - N/A   Clear
1:35 AM 57.2 °F 32.0 °F 38% 30.28 in 10.0 mi SSE 8.1 mph - N/A   Clear
1:55 AM 57.2 °F 33.8 °F 41% 30.28 in 10.0 mi SSE 6.9 mph - N/A   Clear
2:15 AM 55.4 °F 32.0 °F 41% 30.28 in 10.0 mi South 6.9 mph - N/A   Clear
2:35 AM 55.4 °F 33.8 °F 44% 30.27 in 10.0 mi South 5.8 mph - N/A   Clear
2:55 AM 53.6 °F 33.8 °F 47% 30.27 in 10.0 mi South 6.9 mph - N/A   Clear
3:15 AM 53.6 °F 33.8 °F 47% 30.27 in 10.0 mi South 5.8 mph - N/A   Clear
3:35 AM 53.6 °F 33.8 °F 47% 30.27 in 10.0 mi South 4.6 mph - N/A   Clear
3:55 AM 53.6 °F 33.8 °F 47% 30.27 in 10.0 mi SSE 4.6 mph - N/A   Clear
4:15 AM 53.6 °F 33.8 °F 47% 30.27 in 10.0 mi SSE 4.6 mph - N/A   Clear
4:35 AM 51.8 °F 33.8 °F 50% 30.27 in 10.0 mi SSE 5.8 mph - N/A   Clear
4:55 AM 53.6 °F 35.6 °F 51% 30.27 in 10.0 mi SSE 5.8 mph - N/A   Clear
5:15 AM 51.8 °F 35.6 °F 54% 30.27 in 10.0 mi South 4.6 mph - N/A   Clear
5:35 AM 51.8 °F 35.6 °F 54% 30.27 in 10.0 mi SSE 5.8 mph - N/A   Clear
5:55 AM 51.8 °F 35.6 °F 54% 30.28 in 10.0 mi SSE 6.9 mph - N/A   Clear
6:15 AM 51.8 °F 35.6 °F 54% 30.28 in 10.0 mi South 6.9 mph - N/A   Clear
6:35 AM 51.8 °F 35.6 °F 54% 30.28 in 10.0 mi South 5.8 mph - N/A   Clear
6:55 AM 51.8 °F 35.6 °F 54% 30.29 in 10.0 mi South 5.8 mph - N/A   Clear
7:15 AM 51.8 °F 35.6 °F 54% 30.30 in 10.0 mi SSE 6.9 mph - N/A   Clear
7:35 AM 53.6 °F 37.4 °F 54% 30.30 in 10.0 mi South 6.9 mph - N/A   Clear
7:55 AM 55.4 °F 37.4 °F 51% 30.30 in 10.0 mi South 10.4 mph - N/A   Clear
8:15 AM 57.2 °F 37.4 °F 48% 30.30 in 10.0 mi South 11.5 mph - N/A   Clear
8:35 AM 57.2 °F 37.4 °F 48% 30.30 in 10.0 mi South 10.4 mph - N/A   Clear
8:55 AM 60.8 °F 37.4 °F 42% 30.30 in 10.0 mi South 10.4 mph - N/A   Clear
9:15 AM 60.8 °F 37.4 °F 42% 30.30 in 10.0 mi SSE 13.8 mph 17.3 mph N/A   Clear
9:35 AM 62.6 °F 35.6 °F 37% 30.30 in 10.0 mi SSE 13.8 mph 19.6 mph N/A   Clear
9:55 AM 62.6 °F 35.6 °F 37% 30.30 in 10.0 mi SE 11.5 mph - N/A   Clear
10:15 AM 62.6 °F 35.6 °F 37% 30.30 in 10.0 mi South 13.8 mph 19.6 mph N/A   Clear
10:35 AM 64.4 °F 35.6 °F 34% 30.29 in 10.0 mi SSE 11.5 mph - N/A   Clear
10:55 AM 64.4 °F 37.4 °F 37% 30.30 in 10.0 mi South 10.4 mph 18.4 mph N/A   Clear
11:15 AM 66.2 °F 37.4 °F 35% 30.30 in 10.0 mi South 15.0 mph 21.9 mph N/A   Clear
11:35 AM 66.2 °F 39.2 °F 37% 30.30 in 10.0 mi South 13.8 mph 19.6 mph N/A   Clear
11:55 AM 66.2 °F 39.2 °F 37% 30.29 in 10.0 mi South 11.5 mph 18.4 mph N/A   Clear
12:15 PM 69.8 °F 41.0 °F 35% 30.28 in 10.0 mi SSE 11.5 mph 19.6 mph N/A   Clear
12:35 PM 68.0 °F 39.2 °F 35% 30.28 in 10.0 mi South 10.4 mph 19.6 mph N/A   Clear
12:55 PM 69.8 °F 41.0 °F 35% 30.27 in 10.0 mi SE 8.1 mph 18.4 mph N/A   Clear
1:15 PM 69.8 °F 39.2 °F 33% 30.27 in 10.0 mi South 13.8 mph 18.4 mph N/A   Clear
1:35 PM 69.8 °F 39.2 °F 33% 30.26 in 10.0 mi SE 9.2 mph 19.6 mph N/A   Clear
1:55 PM 71.6 °F 39.2 °F 31% 30.26 in 10.0 mi SSE 13.8 mph 19.6 mph N/A   Clear
2:15 PM 71.6 °F 39.2 °F 31% 30.25 in 10.0 mi South 13.8 mph 18.4 mph N/A   Clear
2:35 PM 71.6 °F 39.2 °F 31% 30.25 in 10.0 mi SSE 9.2 mph - N/A   Clear
2:55 PM 71.6 °F 37.4 °F 29% 30.24 in 10.0 mi SE 11.5 mph 18.4 mph N/A   Clear
3:15 PM 71.6 °F 37.4 °F 29% 30.23 in 10.0 mi SSE 10.4 mph 19.6 mph N/A   Clear
3:35 PM 73.4 °F 39.2 °F 29% 30.23 in 10.0 mi South 9.2 mph 16.1 mph N/A   Clear
3:55 PM 73.4 °F 37.4 °F 27% 30.22 in 10.0 mi SE 12.7 mph 19.6 mph N/A   Clear
4:15 PM 73.4 °F 39.2 °F 29% 30.21 in 10.0 mi South 10.4 mph 19.6 mph N/A   Clear
4:35 PM 73.4 °F 39.2 °F 29% 30.21 in 10.0 mi South 9.2 mph - N/A   Clear
4:55 PM 73.4 °F 37.4 °F 27% 30.21 in 10.0 mi South 8.1 mph 18.4 mph N/A   Clear
5:15 PM 71.6 °F 37.4 °F 29% 30.20 in 10.0 mi South 11.5 mph 16.1 mph N/A   Clear
5:35 PM 71.6 °F 37.4 °F 29% 30.20 in 10.0 mi South 11.5 mph 18.4 mph N/A   Clear
5:55 PM 71.6 °F 37.4 °F 29% 30.20 in 10.0 mi SSE 11.5 mph - N/A   Clear
6:15 PM 71.6 °F 39.2 °F 31% 30.20 in 10.0 mi SSE 10.4 mph - N/A   Clear
6:35 PM 71.6 °F 37.4 °F 29% 30.20 in 10.0 mi SSE 6.9 mph - N/A   Clear
6:55 PM 71.6 °F 37.4 °F 29% 30.20 in 10.0 mi South 11.5 mph 16.1 mph N/A   Clear
7:15 PM 71.6 °F 37.4 °F 29% 30.20 in 10.0 mi South 10.4 mph - N/A   Clear
7:35 PM 69.8 °F 37.4 °F 31% 30.21 in 10.0 mi SSE 10.4 mph 17.3 mph N/A   Clear
7:55 PM 68.0 °F 37.4 °F 33% 30.21 in 10.0 mi South 10.4 mph - N/A   Scattered Clouds
8:15 PM 66.2 °F 37.4 °F 35% 30.22 in 10.0 mi South 9.2 mph - N/A   Scattered Clouds
8:35 PM 66.2 °F 37.4 °F 35% 30.22 in 10.0 mi South 8.1 mph - N/A   Clear
8:55 PM 64.4 °F 37.4 °F 37% 30.23 in 10.0 mi South 8.1 mph - N/A   Clear
9:15 PM 64.4 °F 37.4 °F 37% 30.23 in 10.0 mi South 8.1 mph - N/A   Clear
9:35 PM 62.6 °F 37.4 °F 39% 30.24 in 10.0 mi South 9.2 mph - N/A   Clear
9:55 PM 62.6 °F 37.4 °F 39% 30.24 in 10.0 mi South 6.9 mph - N/A   Clear
10:15 PM 62.6 °F 37.4 °F 39% 30.24 in 10.0 mi South 10.4 mph - N/A   Clear
10:35 PM 60.8 °F 37.4 °F 42% 30.24 in 10.0 mi SSE 8.1 mph - N/A   Clear
10:55 PM 60.8 °F 37.4 °F 42% 30.25 in 10.0 mi South 9.2 mph - N/A   Clear
11:15 PM 59.0 °F 37.4 °F 45% 30.25 in 10.0 mi SSE 9.2 mph - N/A   Clear
11:35 PM 59.0 °F 37.4 °F 45% 30.25 in 10.0 mi North - - N/A   Clear
11:55 PM 57.2 °F 37.4 °F 48% 30.25 in 10.0 mi SSE 9.2 mph - N/A   Clear